Time;durP1;ratioP1;P1;durP2;ratioP2;P2;SDS_P1;SDS_P2;PMS_P1;PMS_P2;Temp;Humidity;BMP_temperature;BMP_pressure;BME280_temperature;BME280_humidity;BME280_pressure;Samples;Min_cycle;Max_cycle;Signal;HPM_P1;HPM_P2
2022/03/12 00:01:31;;;;;;;18.75;12.32;;;;;;;10.38;39.85;101197.53;5033696;28;20033;-58
2022/03/12 00:03:58;;;;;;;23.45;13.52;;;;;;;10.42;40.00;101190.50;5033428;28;20071;-58
2022/03/12 00:06:23;;;;;;;20.90;12.52;;;;;;;10.39;39.81;101187.94;5033411;28;20120;-58
2022/03/12 00:08:51;;;;;;;21.35;12.43;;;;;;;10.45;39.80;101182.66;5033124;28;20114;-58
2022/03/12 00:11:18;;;;;;;21.42;12.80;;;;;;;10.37;39.96;101190.56;5033280;28;20029;-59
2022/03/12 00:13:45;;;;;;;17.85;12.88;;;;;;;10.38;40.18;101181.84;5033508;28;20033;-58
2022/03/12 00:16:16;;;;;;;21.90;13.23;;;;;;;10.41;40.00;101188.78;5033396;28;20044;-58
2022/03/12 00:18:42;;;;;;;21.42;12.77;;;;;;;10.36;40.58;101194.06;5033102;28;20049;-58
2022/03/12 00:21:12;;;;;;;19.73;13.30;;;;;;;10.33;40.95;101194.09;5032947;28;20037;-59
2022/03/12 00:23:37;;;;;;;22.63;13.07;;;;;;;10.33;40.69;101190.59;5033194;28;20036;-59
2022/03/12 00:26:03;;;;;;;22.73;13.00;;;;;;;10.33;40.72;101199.31;5032929;28;20039;-59
2022/03/12 00:28:28;;;;;;;18.63;12.32;;;;;;;10.30;40.77;101206.31;5033262;28;20033;-58
2022/03/12 00:30:53;;;;;;;21.83;12.07;;;;;;;10.29;40.84;101192.34;5033220;28;20044;-58
2022/03/12 00:33:21;;;;;;;20.83;13.27;;;;;;;10.32;40.81;101197.56;5032933;28;20095;-58
2022/03/12 00:35:48;;;;;;;23.08;13.05;;;;;;;10.33;40.58;101208.91;5033067;28;20391;-58
2022/03/12 00:38:17;;;;;;;19.25;12.88;;;;;;;10.33;40.79;101203.69;5032605;28;20436;-59
2022/03/12 00:40:43;;;;;;;20.55;12.90;;;;;;;10.42;40.74;101206.22;5033153;28;20048;-58
2022/03/12 00:43:09;;;;;;;22.25;13.20;;;;;;;10.36;41.41;101211.50;5033279;28;20128;-58
2022/03/12 00:45:35;;;;;;;20.13;13.25;;;;;;;10.42;42.26;101212.31;5036971;28;20057;-59
2022/03/12 00:48:00;;;;;;;20.10;12.65;;;;;;;10.48;42.82;101208.78;5036906;28;20511;-59
2022/03/12 00:50:25;;;;;;;21.98;13.10;;;;;;;10.41;42.63;101217.56;5036972;28;20033;-59
2022/03/12 00:52:51;;;;;;;23.60;12.88;;;;;;;10.38;43.01;101215.00;5037031;28;20128;-58
2022/03/12 00:55:16;;;;;;;20.75;12.20;;;;;;;10.38;43.77;101215.00;5036998;28;20052;-58
2022/03/12 00:57:42;;;;;;;19.75;12.57;;;;;;;10.44;44.12;101218.41;5036520;28;20052;-59
2022/03/12 01:00:16;;;;;;;21.13;13.00;;;;;;;10.36;43.84;101211.50;5037062;28;20053;-58
2022/03/12 01:02:42;;;;;;;21.92;12.98;;;;;;;10.31;44.09;101215.91;5036667;28;20025;-58
2022/03/12 01:05:08;;;;;;;21.45;12.93;;;;;;;10.28;44.55;101215.91;5037561;28;20375;-58
2022/03/12 01:07:34;;;;;;;21.55;13.52;;;;;;;10.37;44.44;101218.47;5038374;28;20119;-59
2022/03/12 01:09:59;;;;;;;21.70;13.27;;;;;;;10.37;44.40;101215.88;5038084;28;20048;-58
2022/03/12 01:12:25;;;;;;;22.98;12.88;;;;;;;10.30;44.49;101212.41;5038830;28;20037;-58
2022/03/12 01:14:50;;;;;;;20.52;13.10;;;;;;;10.36;44.35;101216.75;5038005;28;20098;-59
2022/03/12 01:17:16;;;;;;;20.10;12.90;;;;;;;10.36;44.26;101217.59;5037981;28;20581;-58
2022/03/12 01:19:41;;;;;;;21.40;13.40;;;;;;;10.37;44.23;101218.47;5037560;28;20054;-58
2022/03/12 01:22:07;;;;;;;20.15;13.27;;;;;;;10.35;45.23;101223.72;5037847;28;20352;-58
2022/03/12 01:24:34;;;;;;;21.08;13.43;;;;;;;10.41;45.54;101228.03;5038056;28;20033;-58
2022/03/12 01:26:59;;;;;;;20.00;13.20;;;;;;;10.39;45.95;101228.03;5037983;28;20033;-58
2022/03/12 01:29:25;;;;;;;22.70;13.32;;;;;;;10.36;46.75;101235.06;5037960;28;20052;-59
2022/03/12 01:31:50;;;;;;;22.13;13.23;;;;;;;10.28;48.50;101231.59;5037786;28;20124;-58
2022/03/12 01:34:16;;;;;;;22.42;14.60;;;;;;;10.25;49.45;101231.63;5037696;28;20448;-58
2022/03/12 01:36:41;;;;;;;20.17;13.48;;;;;;;10.24;48.86;101235.09;5037538;28;20344;-58
2022/03/12 01:39:06;;;;;;;22.35;14.20;;;;;;;10.13;49.57;101241.25;5037739;28;20040;-58
2022/03/12 01:41:38;;;;;;;22.98;13.45;;;;;;;10.09;50.46;101241.25;5037817;28;20033;-58
2022/03/12 01:44:05;;;;;;;21.77;14.25;;;;;;;10.05;51.07;101235.16;5037495;28;20317;-59
2022/03/12 01:46:34;;;;;;;20.63;13.30;;;;;;;10.00;51.49;101243.94;5037182;28;20467;-58
2022/03/12 01:49:06;;;;;;;20.70;14.00;;;;;;;9.99;52.60;101244.81;5037309;28;20084;-58
2022/03/12 01:51:31;;;;;;;22.90;14.27;;;;;;;9.93;54.07;101240.47;5037844;28;20353;-61
2022/03/12 01:53:58;;;;;;;23.65;13.15;;;;;;;9.88;52.93;101242.22;5037271;28;20033;-58
2022/03/12 01:56:27;;;;;;;20.05;13.75;;;;;;;9.86;53.37;101241.38;5037455;28;20040;-59
2022/03/12 01:58:53;;;;;;;25.17;14.48;;;;;;;9.79;55.76;101237.03;5037314;28;20026;-58
2022/03/12 02:01:19;;;;;;;26.92;14.35;;;;;;;9.83;54.86;101249.22;5037216;28;20417;-58
2022/03/12 02:03:45;;;;;;;22.10;14.30;;;;;;;9.69;54.60;101227.50;5037525;28;20403;-57
2022/03/12 02:06:15;;;;;;;21.52;14.25;;;;;;;9.71;54.94;101228.34;5037047;28;20461;-58
2022/03/12 02:08:41;;;;;;;21.27;13.77;;;;;;;9.66;55.38;101231.00;5037111;28;20073;-58
2022/03/12 02:11:07;;;;;;;21.10;13.80;;;;;;;9.71;54.46;101230.97;5036989;28;20440;-58
2022/03/12 02:13:35;;;;;;;22.40;13.73;;;;;;;9.73;53.41;101226.59;5036868;28;20033;-57
2022/03/12 02:16:08;;;;;;;24.88;13.63;;;;;;;9.73;53.76;101224.00;5036991;28;20107;-57
2022/03/12 02:18:34;;;;;;;;;;;;;;;9.82;52.93;101237.03;5037106;28;20049;-57
2022/03/12 02:21:00;;;;;;;25.73;14.55;;;;;;;9.74;54.17;101229.22;5037386;28;19966;-57
2022/03/12 02:23:25;;;;;;;22.98;13.35;;;;;;;9.77;53.90;101231.81;5037068;28;20480;-57
2022/03/12 02:25:50;;;;;;;20.70;13.55;;;;;;;9.81;54.74;101230.06;5036669;28;20040;-58
2022/03/12 02:28:19;;;;;;;22.30;13.30;;;;;;;9.77;54.19;101234.44;5037035;28;20029;-58
2022/03/12 02:30:51;;;;;;;19.70;13.00;;;;;;;9.83;55.00;101236.16;5036774;28;20030;-58
2022/03/12 02:33:23;;;;;;;21.48;13.45;;;;;;;9.80;54.72;101233.56;5036434;28;20033;-58
2022/03/12 02:35:49;;;;;;;20.33;12.80;;;;;;;9.85;55.75;101241.38;5036737;28;20047;-58
2022/03/12 02:38:15;;;;;;;19.92;13.18;;;;;;;9.80;55.21;101245.75;5036532;28;20428;-58
2022/03/12 02:40:42;;;;;;;19.70;12.45;;;;;;;9.80;55.47;101251.84;5036288;28;20089;-62
2022/03/12 02:43:12;;;;;;;20.67;13.40;;;;;;;9.78;54.82;101245.75;5036315;28;20120;-58
2022/03/12 02:45:39;;;;;;;23.90;13.25;;;;;;;9.88;54.63;101247.44;5036666;28;20068;-58
2022/03/12 02:48:06;;;;;;;20.55;13.18;;;;;;;9.84;55.38;101250.09;5036662;28;20041;-58
2022/03/12 02:50:32;;;;;;;20.38;13.40;;;;;;;9.82;55.28;101254.47;5036137;28;20411;-58
2022/03/12 02:52:57;;;;;;;22.15;13.32;;;;;;;9.82;54.49;101257.94;5036049;28;20065;-58
2022/03/12 02:55:23;;;;;;;19.10;13.00;;;;;;;9.84;54.34;101261.44;5036331;28;20063;-58
2022/03/12 02:57:50;;;;;;;21.23;13.35;;;;;;;9.81;55.14;101260.56;5035837;28;20029;-58
2022/03/12 03:00:18;;;;;;;20.98;13.20;;;;;;;9.79;55.21;101260.56;5036386;28;20421;-58
2022/03/12 03:02:50;;;;;;;23.23;13.45;;;;;;;9.86;54.38;101269.25;5036324;28;20098;-58
2022/03/12 03:05:16;;;;;;;21.23;13.30;;;;;;;9.91;54.78;101272.72;5036307;28;20052;-58
2022/03/12 03:07:41;;;;;;;27.77;13.60;;;;;;;9.78;55.50;101258.81;5035223;28;20439;-57
2022/03/12 03:10:09;;;;;;;23.02;13.32;;;;;;;9.68;55.56;101249.28;5035925;28;20025;-58
2022/03/12 03:12:35;;;;;;;24.08;13.25;;;;;;;9.64;56.33;101264.09;5035748;28;20036;-57
2022/03/12 03:15:00;;;;;;;21.15;13.05;;;;;;;9.57;56.79;101264.09;5035917;28;20025;-57
2022/03/12 03:17:26;;;;;;;20.17;12.60;;;;;;;9.59;56.87;101271.06;5035826;28;20040;-58
2022/03/12 03:19:52;;;;;;;21.05;12.98;;;;;;;9.44;57.64;101276.34;5035834;28;20057;-58
2022/03/12 03:22:17;;;;;;;19.50;12.88;;;;;;;9.33;58.99;101284.19;5035406;28;20025;-58
2022/03/12 03:24:42;;;;;;;18.92;13.35;;;;;;;9.26;59.86;101282.47;5035559;28;20037;-58
2022/03/12 03:27:08;;;;;;;21.95;12.07;;;;;;;9.20;60.51;101279.84;5035983;28;20033;-58
2022/03/12 03:29:33;;;;;;;17.83;12.23;;;;;;;9.13;61.36;101275.50;5035627;28;20033;-58
2022/03/12 03:32:01;;;;;;;19.40;12.05;;;;;;;9.11;61.70;101282.47;5035459;28;20036;-58
2022/03/12 03:34:27;;;;;;;17.20;12.30;;;;;;;9.01;62.39;101276.38;5035277;28;20158;-57
2022/03/12 03:36:54;;;;;;;19.25;11.90;;;;;;;8.99;62.78;101288.56;5035367;28;20128;-57
2022/03/12 03:39:19;;;;;;;17.88;12.23;;;;;;;8.93;63.30;101293.78;5035651;28;20033;-57
2022/03/12 03:41:44;;;;;;;20.10;12.50;;;;;;;8.87;63.37;101288.56;5035358;28;20099;-57
2022/03/12 03:44:11;;;;;;;20.15;12.85;;;;;;;8.86;63.43;101297.25;5035282;28;20048;-57
2022/03/12 03:46:36;;;;;;;19.25;12.45;;;;;;;8.78;63.81;101285.06;5035196;28;20034;-57
2022/03/12 03:49:03;;;;;;;20.13;12.25;;;;;;;8.76;63.78;101294.63;5035209;28;20031;-57
2022/03/12 03:51:29;;;;;;;18.70;12.52;;;;;;;8.68;63.96;101295.47;5034986;28;20099;-57
2022/03/12 03:53:54;;;;;;;18.40;12.55;;;;;;;8.66;64.26;101297.22;5035309;28;20041;-57
2022/03/12 03:56:20;;;;;;;19.42;12.50;;;;;;;8.61;65.08;101300.72;5035144;28;20043;-57
2022/03/12 03:58:46;;;;;;;19.40;12.32;;;;;;;8.56;65.60;101303.28;5034927;28;20428;-57
2022/03/12 04:01:16;;;;;;;17.15;11.45;;;;;;;8.53;66.19;101305.91;5035144;28;20080;-57
2022/03/12 04:03:48;;;;;;;17.98;11.20;;;;;;;8.53;67.37;101297.19;5035289;28;20404;-57
2022/03/12 04:06:15;;;;;;;15.80;10.20;;;;;;;8.50;68.72;101303.28;5035385;28;20099;-57
2022/03/12 04:08:44;;;;;;;14.15;10.30;;;;;;;8.50;69.64;101305.00;5034713;28;20026;-57
2022/03/12 04:11:15;;;;;;;16.63;10.55;;;;;;;8.46;70.43;101311.09;5034982;28;20352;-57
2022/03/12 04:13:40;;;;;;;15.68;10.30;;;;;;;8.48;70.84;101314.59;5034998;28;20036;-57
2022/03/12 04:16:06;;;;;;;17.02;9.68;;;;;;;8.48;71.23;101325.91;5035158;28;20041;-57
2022/03/12 04:18:32;;;;;;;13.95;9.15;;;;;;;8.47;72.88;101318.06;5034382;28;20065;-58
2022/03/12 04:20:58;;;;;;;13.68;9.10;;;;;;;8.48;72.72;101327.63;5034484;28;20068;-57
2022/03/12 04:23:25;;;;;;;13.30;8.98;;;;;;;8.44;72.88;101320.66;5034841;28;20037;-58
2022/03/12 04:25:53;;;;;;;13.05;9.13;;;;;;;8.44;73.67;101324.16;5034724;28;20117;-58
2022/03/12 04:28:20;;;;;;;11.07;7.68;;;;;;;8.46;74.87;101321.53;5034769;28;20107;-57
2022/03/12 04:30:46;;;;;;;11.75;8.10;;;;;;;8.47;75.59;101313.72;5034808;28;20030;-57
2022/03/12 04:33:13;;;;;;;12.15;8.25;;;;;;;8.46;76.07;101322.41;5034539;28;20144;-58
2022/03/12 04:35:39;;;;;;;13.57;8.20;;;;;;;8.48;76.17;101323.28;5034726;28;20386;-58
2022/03/12 04:38:07;;;;;;;13.07;8.27;;;;;;;8.46;76.61;101317.19;5035215;28;20040;-58
2022/03/12 04:40:33;;;;;;;10.60;7.32;;;;;;;8.47;77.02;101320.69;5034657;28;20443;-57
2022/03/12 04:42:58;;;;;;;11.73;7.30;;;;;;;8.45;77.16;101327.63;5034681;28;20029;-57
2022/03/12 04:45:26;;;;;;;10.98;7.70;;;;;;;8.46;77.31;101332.84;5034741;28;20091;-57
2022/03/12 04:47:52;;;;;;;10.55;7.63;;;;;;;8.43;78.17;101317.19;5034372;28;20391;-57
2022/03/12 04:50:20;;;;;;;10.13;7.47;;;;;;;8.42;78.43;101320.66;5034696;28;20044;-57
2022/03/12 04:52:47;;;;;;;11.80;7.78;;;;;;;8.42;78.25;101323.25;5034794;28;20040;-58
2022/03/12 04:55:24;;;;;;;10.48;7.90;;;;;;;8.39;77.82;101331.06;5034765;28;20040;-57
2022/03/12 04:57:50;;;;;;;11.93;7.88;;;;;;;8.36;78.79;101333.66;5034555;28;20051;-57
2022/03/12 05:00:27;;;;;;;13.18;8.10;;;;;;;8.36;77.95;101342.34;5034310;28;20025;-58
2022/03/12 05:02:56;;;;;;;12.65;8.23;;;;;;;8.35;79.37;101339.75;5034562;28;20025;-58
2022/03/12 05:05:22;;;;;;;13.00;7.97;;;;;;;8.34;79.27;101338.88;5034769;28;20029;-57
2022/03/12 05:07:48;;;;;;;11.50;8.07;;;;;;;8.24;79.64;101334.47;5034255;28;20404;-58
2022/03/12 05:10:18;;;;;;;11.10;8.45;;;;;;;8.26;80.03;101344.91;5034255;28;20044;-58
2022/03/12 05:12:48;;;;;;;11.95;7.97;;;;;;;8.26;80.38;101335.34;5034349;28;20057;-58
2022/03/12 05:15:15;;;;;;;9.38;7.20;;;;;;;8.22;80.56;101346.63;5034253;28;20032;-58
2022/03/12 05:17:48;;;;;;;10.68;7.28;;;;;;;8.22;80.66;101343.13;5034226;28;20356;-58
2022/03/12 05:20:25;;;;;;;11.75;8.10;;;;;;;8.21;80.19;101349.22;5034764;28;20058;-58
2022/03/12 05:22:51;;;;;;;11.65;8.10;;;;;;;8.21;80.66;101357.03;5034378;28;20129;-57
2022/03/12 05:25:18;;;;;;;11.85;8.57;;;;;;;8.11;80.63;101356.13;5034063;28;20029;-58
2022/03/12 05:27:51;;;;;;;13.90;8.43;;;;;;;8.10;80.89;101366.56;5034210;28;20032;-58
2022/03/12 05:30:16;;;;;;;13.15;9.07;;;;;;;8.06;80.70;101362.19;5036047;28;20159;-58
2022/03/12 05:32:42;;;;;;;14.27;8.85;;;;;;;7.99;80.93;101364.75;5037833;28;20037;-58
2022/03/12 05:35:08;;;;;;;14.82;9.32;;;;;;;7.98;81.24;101365.59;5037479;28;20136;-58
2022/03/12 05:37:33;;;;;;;13.15;8.88;;;;;;;7.92;81.15;101360.38;5037966;28;20025;-58
2022/03/12 05:39:58;;;;;;;13.93;9.32;;;;;;;7.91;81.58;101374.28;5037579;28;20041;-58
2022/03/12 05:42:24;;;;;;;13.93;9.55;;;;;;;7.90;81.86;101372.53;5037309;28;20029;-58
2022/03/12 05:44:50;;;;;;;13.25;8.55;;;;;;;7.88;82.17;101378.59;5037370;28;20159;-58
2022/03/12 05:47:17;;;;;;;12.48;8.60;;;;;;;7.84;82.25;101385.50;5037447;28;20052;-58
2022/03/12 05:49:43;;;;;;;12.65;8.73;;;;;;;7.79;82.93;101378.53;5037531;28;20087;-58
2022/03/12 05:52:09;;;;;;;11.80;8.23;;;;;;;7.81;83.06;101382.00;5037630;28;20409;-57
2022/03/12 05:54:35;;;;;;;12.23;8.55;;;;;;;7.83;83.18;101388.09;5037287;28;20440;-58
2022/03/12 05:57:00;;;;;;;12.57;8.85;;;;;;;7.80;83.01;101394.16;5036954;28;20041;-58
2022/03/12 05:59:25;;;;;;;13.43;8.40;;;;;;;7.79;83.14;101395.06;5037193;28;20033;-58
2022/03/12 06:01:51;;;;;;;14.57;8.52;;;;;;;7.75;83.62;101392.41;5037017;28;20033;-58
2022/03/12 06:04:25;;;;;;;17.70;8.75;;;;;;;7.72;83.86;101389.78;5037666;28;20044;-58
2022/03/12 06:06:51;;;;;;;13.00;9.10;;;;;;;7.74;84.06;101391.53;5037173;28;20033;-58
2022/03/12 06:09:16;;;;;;;11.30;8.20;;;;;;;7.79;83.96;101381.16;5037188;28;20128;-58
2022/03/12 06:11:42;;;;;;;12.65;8.57;;;;;;;7.79;84.41;101388.97;5036895;28;20029;-58
2022/03/12 06:14:08;;;;;;;11.73;8.35;;;;;;;7.69;84.69;101380.19;5037195;28;20033;-59
2022/03/12 06:16:34;;;;;;;12.50;8.57;;;;;;;7.82;84.98;101394.16;5037007;28;20036;-59
2022/03/12 06:18:59;;;;;;;12.95;8.35;;;;;;;7.83;84.61;101396.78;5037017;28;20041;-59
2022/03/12 06:21:24;;;;;;;13.18;8.10;;;;;;;7.85;84.49;101400.28;5037068;28;20029;-59
2022/03/12 06:23:51;;;;;;;12.82;8.75;;;;;;;7.85;84.80;101402.00;5037467;28;20107;-58
2022/03/12 06:26:16;;;;;;;14.23;8.90;;;;;;;7.86;85.17;101408.97;5036612;28;20499;-59
2022/03/12 06:28:43;;;;;;;12.95;8.30;;;;;;;7.88;84.94;101412.47;5036121;28;20042;-59
2022/03/12 06:31:12;;;;;;;13.45;8.90;;;;;;;7.93;85.09;101416.84;5036785;28;20075;-59
2022/03/12 06:33:37;;;;;;;14.32;9.05;;;;;;;7.99;85.06;101411.66;5036783;28;20048;-59
2022/03/12 06:36:03;;;;;;;14.18;9.50;;;;;;;8.04;84.94;101401.25;5036656;28;20026;-59
2022/03/12 06:38:30;;;;;;;12.40;8.13;;;;;;;8.08;84.92;101408.25;5034091;28;20034;-59
2022/03/12 06:40:58;;;;;;;11.10;8.27;;;;;;;8.19;85.03;101409.16;5034735;28;20041;-59
2022/03/12 06:43:28;;;;;;;12.85;8.15;;;;;;;8.19;84.68;101414.38;5037873;28;20025;-59
2022/03/12 06:46:01;;;;;;;12.43;8.90;;;;;;;8.27;84.69;101424.88;5033809;28;20065;-59
2022/03/12 06:48:28;;;;;;;11.35;7.93;;;;;;;8.29;84.53;101425.75;5033575;28;20032;-58
2022/03/12 06:50:54;;;;;;;11.77;8.40;;;;;;;8.42;84.14;101424.09;5035530;28;20029;-59
2022/03/12 06:53:19;;;;;;;13.07;7.65;;;;;;;8.44;84.17;101422.38;5036033;28;20443;-59
2022/03/12 06:55:44;;;;;;;12.25;8.50;;;;;;;8.53;83.87;101425.88;5035637;28;20387;-59
2022/03/12 06:58:10;;;;;;;12.55;8.23;;;;;;;8.48;83.96;101419.78;5036288;28;20040;-58
2022/03/12 07:00:36;;;;;;;13.50;8.00;;;;;;;8.55;83.88;101428.50;5036013;28;20029;-59
2022/03/12 07:03:02;;;;;;;13.60;8.30;;;;;;;8.65;83.84;101427.69;5035913;28;20459;-59
2022/03/12 07:05:27;;;;;;;11.55;7.70;;;;;;;8.72;83.50;101427.69;5036026;28;20348;-59
2022/03/12 07:07:53;;;;;;;11.70;8.23;;;;;;;8.79;83.24;101435.56;5035655;28;20044;-59
2022/03/12 07:10:19;;;;;;;11.77;8.20;;;;;;;8.79;83.33;101430.34;5036053;28;20041;-58
2022/03/12 07:12:46;;;;;;;11.52;8.10;;;;;;;8.86;82.94;101439.91;5036114;28;20044;-59
2022/03/12 07:15:12;;;;;;;12.10;7.97;;;;;;;8.94;82.81;101438.22;5035860;28;20041;-58
2022/03/12 07:17:39;;;;;;;11.90;7.63;;;;;;;8.99;82.46;101439.09;5035844;28;20368;-59
2022/03/12 07:20:05;;;;;;;11.80;8.10;;;;;;;8.97;82.86;101446.94;5034959;28;20053;-59
2022/03/12 07:22:31;;;;;;;10.35;7.70;;;;;;;9.03;82.68;101441.69;5035618;28;20092;-58
2022/03/12 07:24:57;;;;;;;11.75;8.18;;;;;;;9.07;82.27;101447.81;5035735;28;20041;-59
2022/03/12 07:27:22;;;;;;;10.82;8.00;;;;;;;9.10;82.28;101445.22;5035693;28;20025;-58
2022/03/12 07:29:47;;;;;;;11.35;7.78;;;;;;;9.17;82.22;101461.78;5035859;28;20021;-59
2022/03/12 07:32:13;;;;;;;11.90;7.60;;;;;;;9.19;82.21;101457.41;5035835;28;20025;-58
2022/03/12 07:34:38;;;;;;;10.20;7.82;;;;;;;9.27;81.32;101459.16;5035598;28;20029;-59
2022/03/12 07:37:04;;;;;;;11.52;7.88;;;;;;;9.35;81.28;101467.88;5035184;28;20033;-59
2022/03/12 07:39:29;;;;;;;12.15;8.18;;;;;;;9.48;80.91;101460.94;5040422;28;20091;-59
2022/03/12 07:41:54;;;;;;;11.40;8.23;;;;;;;9.64;80.37;101465.31;5035510;28;20029;-59
2022/03/12 07:44:20;;;;;;;11.18;8.02;;;;;;;9.82;79.46;101476.63;5035660;28;20044;-58
2022/03/12 07:46:45;;;;;;;12.10;8.02;;;;;;;9.93;79.23;101477.50;5035348;28;20472;-58
2022/03/12 07:49:11;;;;;;;11.05;7.63;;;;;;;10.14;78.65;101482.72;5035163;28;20032;-59
2022/03/12 07:51:36;;;;;;;11.63;7.82;;;;;;;10.26;77.66;101484.47;5035085;28;20494;-59
2022/03/12 07:54:04;;;;;;;12.15;8.43;;;;;;;10.36;77.30;101483.59;5034412;28;20492;-58
2022/03/12 07:56:30;;;;;;;11.38;8.10;;;;;;;10.57;76.88;101487.84;5035248;28;20124;-58
2022/03/12 07:58:55;;;;;;;10.82;7.55;;;;;;;10.70;75.93;101476.50;5035291;28;20065;-58
2022/03/12 08:01:22;;;;;;;11.32;7.60;;;;;;;10.88;75.06;101486.03;5035146;28;20397;-59
2022/03/12 08:03:48;;;;;;;10.13;7.18;;;;;;;11.00;74.28;101488.59;5033910;28;20415;-62
2022/03/12 08:06:15;;;;;;;11.40;7.47;;;;;;;11.04;73.81;101480.72;5034601;28;20036;-59
2022/03/12 08:08:40;;;;;;;14.00;8.32;;;;;;;11.14;73.53;101482.38;5034175;28;20503;-60
2022/03/12 08:11:25;;;;;;;12.43;7.75;;;;;;;11.19;73.24;101490.22;5034452;28;20052;-60
2022/03/12 08:13:51;;;;;;;9.60;7.43;;;;;;;11.24;72.61;101496.31;5031971;28;20022;-59
2022/03/12 08:16:16;;;;;;;11.15;7.65;;;;;;;11.34;72.57;101491.88;5034316;28;20355;-59
2022/03/12 08:18:43;;;;;;;9.93;7.53;;;;;;;11.59;71.90;101506.59;5034242;28;20134;-60
2022/03/12 08:21:09;;;;;;;10.05;7.30;;;;;;;11.81;70.48;101499.44;5031851;28;20056;-60
2022/03/12 08:23:35;;;;;;;10.23;7.47;;;;;;;12.00;69.95;101501.03;5034369;28;20104;-59
2022/03/12 08:26:00;;;;;;;10.40;7.30;;;;;;;12.16;69.72;101504.38;5034285;28;20420;-60
2022/03/12 08:28:27;;;;;;;13.25;7.45;;;;;;;12.32;69.23;101512.97;5034294;28;20098;-60
2022/03/12 08:30:52;;;;;;;11.25;7.55;;;;;;;12.54;68.12;101510.13;5034388;28;20025;-60
2022/03/12 08:33:20;;;;;;;15.52;7.47;;;;;;;12.64;68.25;101513.50;5034284;28;20355;-59
2022/03/12 08:35:45;;;;;;;9.65;6.63;;;;;;;12.81;67.20;101529.09;5033985;28;20467;-60
2022/03/12 08:38:11;;;;;;;10.88;7.28;;;;;;;12.97;66.40;101519.28;5034322;28;20033;-60
2022/03/12 08:40:36;;;;;;;8.57;6.43;;;;;;;12.86;66.58;101516.75;5034382;28;20410;-60
2022/03/12 08:43:02;;;;;;;10.30;6.60;;;;;;;12.76;66.82;101516.00;5033908;28;20518;-60
2022/03/12 08:45:28;;;;;;;10.25;6.85;;;;;;;12.72;67.48;101527.44;5033441;28;20038;-60
2022/03/12 08:47:53;;;;;;;8.93;6.55;;;;;;;12.67;67.34;101530.97;5029409;28;20048;-60
2022/03/12 08:50:19;;;;;;;8.77;6.05;;;;;;;12.69;67.85;101518.69;5033536;28;20375;-60
2022/03/12 08:52:45;;;;;;;10.95;6.70;;;;;;;12.62;67.74;101528.44;5028514;28;20097;-59
2022/03/12 08:55:11;;;;;;;10.52;6.20;;;;;;;12.56;67.67;101533.72;5034120;28;20025;-60
2022/03/12 08:57:37;;;;;;;10.32;5.70;;;;;;;12.49;67.22;101537.28;5034178;28;20447;-60
2022/03/12 09:00:06;;;;;;;9.50;4.57;;;;;;;12.46;67.08;101539.97;5033565;28;20037;-60
2022/03/12 09:02:33;;;;;;;7.18;4.70;;;;;;;12.33;67.60;101541.81;5029060;28;20029;-60
2022/03/12 09:04:59;;;;;;;13.32;5.10;;;;;;;12.40;67.08;101537.41;5035462;28;20025;-60
2022/03/12 09:07:25;;;;;;;8.63;4.50;;;;;;;12.52;66.47;101535.50;5037439;28;20029;-60
2022/03/12 09:09:54;;;;;;;8.13;4.47;;;;;;;12.52;66.38;101535.50;5054898;28;20456;-59
2022/03/12 09:12:19;;;;;;;8.43;4.53;;;;;;;12.66;66.17;101542.38;5038107;28;20029;-60
2022/03/12 09:14:44;;;;;;;9.75;4.25;;;;;;;12.67;65.76;101542.34;5038011;28;20040;-60
2022/03/12 09:17:10;;;;;;;9.68;4.45;;;;;;;12.70;66.13;101534.44;5037996;28;20113;-62
2022/03/12 09:19:35;;;;;;;8.27;4.32;;;;;;;12.75;64.47;101537.91;5037097;28;20066;-60
2022/03/12 09:22:02;;;;;;;9.30;4.47;;;;;;;12.69;64.91;101548.47;5036997;28;20041;-60
2022/03/12 09:24:28;;;;;;;7.20;4.18;;;;;;;12.64;64.21;101547.63;5037026;28;20098;-60
2022/03/12 09:26:53;;;;;;;8.20;4.03;;;;;;;12.71;64.01;101556.31;5037256;28;20488;-60
2022/03/12 09:29:18;;;;;;;7.82;3.97;;;;;;;12.68;64.60;101541.47;5035800;28;20040;-61
2022/03/12 09:31:44;;;;;;;11.00;3.50;;;;;;;12.85;62.37;101547.41;5037450;28;20061;-59
2022/03/12 09:34:09;;;;;;;10.15;3.75;;;;;;;12.79;62.50;101551.88;5037380;28;20037;-59
2022/03/12 09:36:36;;;;;;;7.13;3.45;;;;;;;12.76;62.77;101552.78;5037850;28;20056;-60
2022/03/12 09:39:03;;;;;;;8.05;3.90;;;;;;;12.82;62.22;101550.06;5037584;28;20055;-59
2022/03/12 09:41:28;;;;;;;7.85;3.42;;;;;;;12.93;62.61;101551.72;5037847;28;20034;-59
2022/03/12 09:43:53;;;;;;;6.60;3.20;;;;;;;13.05;61.56;101544.53;5037448;28;20033;-60
2022/03/12 09:46:19;;;;;;;8.02;3.08;;;;;;;13.15;60.98;101547.97;5037776;28;20045;-59
2022/03/12 09:48:44;;;;;;;8.85;2.95;;;;;;;13.10;59.14;101539.25;5037514;28;20108;-59
2022/03/12 09:51:10;;;;;;;8.30;2.65;;;;;;;13.10;59.35;101547.13;5037009;28;20490;-59
2022/03/12 09:53:35;;;;;;;9.57;2.78;;;;;;;13.10;58.73;101540.09;5034785;28;20035;-59
2022/03/12 09:56:01;;;;;;;7.75;2.55;;;;;;;13.11;58.39;101543.59;5036356;28;20440;-59
2022/03/12 09:58:26;;;;;;;9.15;2.67;;;;;;;12.96;59.14;101552.56;5037280;28;20044;-60
2022/03/12 10:00:52;;;;;;;6.50;2.40;;;;;;;12.99;59.78;101554.28;5036922;28;20033;-60
2022/03/12 10:03:17;;;;;;;7.65;2.60;;;;;;;13.00;58.79;101554.22;5037231;28;20114;-57
2022/03/12 10:05:42;;;;;;;7.93;2.78;;;;;;;13.05;59.22;101556.81;5036702;28;20379;-57
2022/03/12 10:08:08;;;;;;;7.22;2.58;;;;;;;13.21;58.48;101555.75;5036517;28;20044;-57
2022/03/12 10:10:34;;;;;;;7.78;2.90;;;;;;;13.28;57.95;101564.44;5036816;28;20109;-56
2022/03/12 10:12:59;;;;;;;6.63;2.70;;;;;;;13.32;58.65;101563.53;5036823;28;20040;-59
2022/03/12 10:15:25;;;;;;;8.02;2.83;;;;;;;13.47;58.03;101558.06;5036324;28;20033;-59
2022/03/12 10:17:50;;;;;;;9.82;3.05;;;;;;;13.44;57.68;101556.34;5036090;28;20071;-60
2022/03/12 10:20:16;;;;;;;8.40;2.83;;;;;;;13.35;57.86;101564.31;5036392;28;20123;-59
2022/03/12 10:22:43;;;;;;;7.55;2.80;;;;;;;13.48;57.59;101558.03;5036319;28;20029;-59
2022/03/12 10:25:09;;;;;;;9.55;3.03;;;;;;;13.51;57.26;101565.84;5036435;28;20037;-59
2022/03/12 10:27:35;;;;;;;6.15;2.92;;;;;;;13.58;56.98;101557.00;5035275;28;20030;-59
2022/03/12 10:30:02;;;;;;;9.52;2.58;;;;;;;13.68;56.78;101552.47;5035275;28;20045;-59
2022/03/12 10:32:34;;;;;;;7.93;2.50;;;;;;;13.69;56.67;101546.31;5031604;28;20356;-59
2022/03/12 10:35:01;;;;;;;;;;;;;;;14.03;55.82;101554.53;5036772;28;20427;-59
2022/03/12 10:37:30;;;;;;;8.80;2.38;;;;;;;13.65;55.65;101551.66;5035352;28;20386;-64
2022/03/12 10:40:06;;;;;;;5.63;2.20;;;;;;;13.69;55.96;101554.22;5036094;28;20038;-59
2022/03/12 10:42:34;;;;;;;6.75;2.78;;;;;;;13.77;55.99;101557.59;5035854;28;20064;-59
2022/03/12 10:45:10;;;;;;;9.45;2.65;;;;;;;13.98;55.86;101561.66;5036134;28;20041;-59
2022/03/12 10:47:41;;;;;;;7.35;2.60;;;;;;;14.31;55.24;101570.78;5036302;28;20033;-59
2022/03/12 10:50:14;;;;;;;7.63;2.50;;;;;;;14.46;54.06;101559.13;5036234;28;20036;-59
2022/03/12 10:52:49;;;;;;;7.28;2.40;;;;;;;14.54;53.26;101530.91;5035722;28;20029;-61
2022/03/12 10:55:36;;;;;;;8.10;2.58;;;;;;;14.96;53.10;101550.25;5036493;28;20041;-60
2022/03/12 10:58:07;;;;;;;6.90;2.42;;;;;;;14.99;52.74;101544.94;5036192;28;20029;-61
2022/03/12 11:00:41;;;;;;;5.10;2.58;;;;;;;15.01;52.65;101551.03;5036355;28;20107;-59
2022/03/12 11:03:12;;;;;;;7.47;2.30;;;;;;;14.85;51.58;101557.53;5036021;28;20029;-59
2022/03/12 11:05:38;;;;;;;5.05;2.67;;;;;;;14.93;51.57;101547.69;5036090;28;20052;-58
2022/03/12 11:08:16;;;;;;;8.15;2.67;;;;;;;14.99;52.64;101563.38;5035362;28;20116;-57
2022/03/12 11:10:53;;;;;;;6.07;2.20;;;;;;;15.05;51.90;101558.00;5036036;28;20121;-58
2022/03/12 11:13:34;;;;;;;6.28;2.20;;;;;;;15.16;51.15;101557.75;5035802;28;20029;-58
2022/03/12 11:16:05;;;;;;;7.07;2.55;;;;;;;15.18;51.23;101562.09;5036020;28;20037;-58
2022/03/12 11:18:32;;;;;;;11.68;2.08;;;;;;;15.21;49.89;101550.63;5035952;28;20441;-58
2022/03/12 11:20:58;;;;;;;9.30;2.20;;;;;;;15.23;50.08;101564.66;5035922;28;20071;-56